Maryland METAR Reports


Distance/Direction noted is from Ellicott City, MD as the crow flies

KCBE - Cumberland - 118 miles WNW
Updated: Sun, 10/19/2014 11:24 PM
Clear
Clear
 Wind from calm
Wind: Calm
Temperature: 43°F
Dew Point: 36°F
Humidity: 76%
Barometer: 30.14 inHg
Clouds: Clear
Visibility: 10 miles
2014/10/20 03:24 KCBE 200324Z AUTO 00000KT 10SM CLR 06/02 A3014 RMK AO1
KHGR - Hagerstown - 57 miles NW
Updated: Sun, 10/19/2014 10:53 PM
NOT Current
Clear
Clear
 Wind from SSW
Wind: SSW 3 mph
Temperature: 48°F
Dew Point: 32°F
Humidity: 54%
Barometer: 30.09 inHg
Clouds: Clear
Visibility: 10 miles
2014/10/20 02:53 KHGR 200253Z AUTO 20003KT 10SM CLR 09/00 A3009 RMK AO2 SLP202 T00940000 51003
 
KFDK - Frederick - 34 miles NW
Updated: Sun, 10/19/2014 11:20 PM
Clear
Clear
 Wind from S
Wind: S 3 mph
Temperature: 46°F
Dew Point: 37°F
Humidity: 71%
Barometer: 30.13 inHg
Clouds: Clear
Visibility: 10 miles
2014/10/20 03:20 KFDK 200320Z AUTO 17003KT 10SM CLR 08/03 A3013 RMK AO2
KGAI - Gaithersburg - 26 miles SW
Updated: Sun, 10/19/2014 11:15 PM
Clear
Clear
 Wind from calm
Wind: Calm
Temperature: 41°F
Dew Point: 36°F
Humidity: 81%
Barometer: 30.15 inHg
Clouds: Clear
Visibility: 10 miles
2014/10/20 03:15 KGAI 200315Z 00000KT 10SM CLR 05/02 A3015 RMK AO1
 
KBWI - BWI Airport - 15 miles SE
Updated: Sun, 10/19/2014 10:54 PM
NOT Current
Mostly Cloudy
Mostly Cloudy
 Wind from calm
Wind: Calm
Temperature: 43°F
Dew Point: 36°F
Humidity: 76%
Barometer: 30.11 inHg
Clouds: Mostly Cloudy
Visibility: 10 miles
Cloud Details: Mostly Cloudy 25000 ft
2014/10/20 02:54 KBWI 200254Z 00000KT 10SM BKN250 06/02 A3011 RMK AO2 SLP195 T00610022 51015
KNAK - Annapolis - 32 miles SSE
Updated: Sun, 10/19/2014 10:54 PM
NOT Current
Clear
Clear
 Wind from WSW
Wind: WSW 5 mph
Temperature: 48°F
Wind Chill: 46°F
Dew Point: 34°F
Humidity: 58%
Barometer: 30.11 inHg
Clouds: Clear
Visibility: 10 miles
2014/10/20 02:54 KNAK 200254Z AUTO 25004KT 10SM CLR 09/01 A3011 RMK AO2 SLP198 T00890011 51017
 
KESN - Easton - 63 miles SE
Updated: Sun, 10/19/2014 8:53 PM
NOT Current
Partly Cloudy
Partly Cloudy
 Wind from calm
Wind: Calm
Temperature: 46°F
Dew Point: 37°F
Humidity: 71%
Barometer: 30.12 inHg
Clouds: Partly Cloudy
Visibility: 10 miles
Cloud Details: Partly Cloudy 25000 ft
2014/10/20 00:53 KESN 200053Z 00000KT 10SM SCT250 08/03 A3012
KSBY - Salisbury - 112 miles SE
Updated: Sun, 10/19/2014 10:54 PM
NOT Current
Clear
Clear
 Wind from calm
Wind: Calm
Temperature: 41°F
Dew Point: 36°F
Humidity: 81%
Barometer: 30.12 inHg
Clouds: Clear
Visibility: 10 miles
2014/10/20 02:54 KSBY 200254Z AUTO 00000KT 10SM CLR 05/02 A3012 RMK AO2 SLP200 T00500022 51016